Time;durP1;ratioP1;P1;durP2;ratioP2;P2;SDS_P1;SDS_P2;PMS_P1;PMS_P2;Temp;Humidity;BMP_temperature;BMP_pressure;BME280_temperature;BME280_humidity;BME280_pressure;Samples;Min_cycle;Max_cycle;Signal;HPM_P1;HPM_P2
2024/01/17 00:02:03;;;;;;;4.67;3.93;;;-0.10;99.90;;;;;;5046208;28;20291;-72
2024/01/17 00:04:30;;;;;;;5.67;4.27;;;-0.10;99.90;;;;;;5046035;28;20358;-71
2024/01/17 00:06:57;;;;;;;6.43;3.90;;;-0.10;99.90;;;;;;5047787;28;20865;-71
2024/01/17 00:09:24;;;;;;;4.83;4.03;;;-0.20;99.90;;;;;;5050333;28;20212;-71
2024/01/17 00:11:51;;;;;;;5.60;4.23;;;-0.30;99.90;;;;;;5050047;28;20277;-70
2024/01/17 00:14:19;;;;;;;7.10;4.20;;;-0.20;99.90;;;;;;5050079;28;20208;-70
2024/01/17 00:16:46;;;;;;;4.87;4.37;;;-0.30;99.90;;;;;;5049790;28;20284;-70
2024/01/17 00:19:13;;;;;;;4.20;3.90;;;-0.30;99.90;;;;;;5049952;28;20327;-71
2024/01/17 00:21:40;;;;;;;4.93;4.33;;;-0.30;99.90;;;;;;5049868;28;20207;-70
2024/01/17 00:24:07;;;;;;;4.80;3.97;;;-0.30;99.90;;;;;;5050208;28;20295;-70
2024/01/17 00:26:34;;;;;;;6.63;4.27;;;-0.30;99.90;;;;;;5049669;28;20244;-70
2024/01/17 00:29:01;;;;;;;5.77;4.30;;;-0.30;99.90;;;;;;5049324;28;20265;-70
2024/01/17 00:31:29;;;;;;;5.33;4.00;;;-0.30;99.90;;;;;;5049687;28;20287;-69
2024/01/17 00:33:56;;;;;;;4.83;3.93;;;-0.30;99.90;;;;;;5049416;28;20853;-70
2024/01/17 00:36:23;;;;;;;6.03;4.13;;;-0.30;99.90;;;;;;5049658;28;20204;-70
2024/01/17 00:38:49;;;;;;;5.73;3.90;;;-0.20;99.90;;;;;;5048930;28;20236;-70
2024/01/17 00:41:18;;;;;;;4.00;3.70;;;-0.30;99.90;;;;;;5049689;28;20311;-70
2024/01/17 00:43:45;;;;;;;5.93;4.50;;;-0.30;99.90;;;;;;5049558;28;20212;-70
2024/01/17 00:46:13;;;;;;;6.17;3.90;;;-0.40;99.90;;;;;;5049133;28;20208;-70
2024/01/17 00:48:41;;;;;;;3.97;3.67;;;-0.40;99.90;;;;;;5049786;28;20218;-70
2024/01/17 00:51:08;;;;;;;4.73;3.80;;;-0.40;99.90;;;;;;5048898;28;20212;-71
2024/01/17 00:53:35;;;;;;;5.23;3.57;;;-0.40;99.90;;;;;;5049122;28;20211;-70
2024/01/17 00:56:01;;;;;;;5.70;3.77;;;-0.40;99.90;;;;;;5048690;28;20247;-70
2024/01/17 00:58:29;;;;;;;5.13;4.00;;;-0.40;99.90;;;;;;5049286;28;20618;-70
2024/01/17 01:00:55;;;;;;;7.00;4.40;;;-0.40;99.90;;;;;;5049321;28;20289;-70
2024/01/17 01:03:22;;;;;;;4.23;3.60;;;-0.50;99.90;;;;;;5049028;28;20203;-71
2024/01/17 01:05:50;;;;;;;3.60;3.33;;;-0.50;99.90;;;;;;5049118;28;20292;-70
2024/01/17 01:08:17;;;;;;;5.57;3.73;;;-0.50;99.90;;;;;;5048963;28;20378;-70
2024/01/17 01:10:44;;;;;;;6.70;4.20;;;-0.60;99.90;;;;;;5048798;28;20248;-70
2024/01/17 01:13:11;;;;;;;5.67;4.53;;;-0.50;99.90;;;;;;5049255;28;20287;-70
2024/01/17 01:15:38;;;;;;;4.53;3.90;;;-0.50;99.90;;;;;;5049081;28;20303;-69
2024/01/17 01:18:05;;;;;;;4.87;3.67;;;-0.50;99.90;;;;;;5048044;28;20708;-70
2024/01/17 01:20:32;;;;;;;5.07;3.97;;;-0.50;99.90;;;;;;5048771;28;20769;-69
2024/01/17 01:23:00;;;;;;;6.20;4.30;;;-0.60;99.90;;;;;;5048682;28;20612;-70
2024/01/17 01:25:28;;;;;;;4.80;4.40;;;-0.60;99.90;;;;;;5048764;28;20333;-69
2024/01/17 01:27:55;;;;;;;4.80;4.17;;;-0.60;99.90;;;;;;5048750;28;20204;-70
2024/01/17 01:30:22;;;;;;;5.07;4.33;;;-0.60;99.90;;;;;;5048656;28;20746;-69
2024/01/17 01:32:49;;;;;;;9.50;5.27;;;-0.50;99.90;;;;;;5048825;28;20208;-70
2024/01/17 01:35:16;;;;;;;6.10;4.27;;;-0.60;99.90;;;;;;5048230;28;20295;-69
2024/01/17 01:37:43;;;;;;;6.83;4.70;;;-0.60;99.90;;;;;;5048308;28;20308;-70
2024/01/17 01:40:13;;;;;;;5.67;4.70;;;-0.60;99.90;;;;;;5048283;28;20760;-70
2024/01/17 01:42:43;;;;;;;5.97;5.00;;;-0.60;99.90;;;;;;5048345;28;20650;-69
2024/01/17 01:45:10;;;;;;;5.87;4.33;;;-0.60;99.90;;;;;;5048025;28;20196;-69
2024/01/17 01:47:38;;;;;;;6.70;4.57;;;-0.60;99.90;;;;;;5048545;28;20231;-70
2024/01/17 01:50:07;;;;;;;6.80;4.60;;;-0.60;99.90;;;;;;5048295;28;20212;-70
2024/01/17 01:52:36;;;;;;;7.20;4.93;;;-0.60;99.90;;;;;;5047947;28;20208;-69
2024/01/17 01:55:05;;;;;;;5.97;4.73;;;-0.70;99.90;;;;;;5047812;28;20659;-70
2024/01/17 01:57:36;;;;;;;5.73;4.30;;;-0.70;99.90;;;;;;5048127;28;20221;-69
2024/01/17 02:00:04;;;;;;;4.80;4.37;;;-0.70;99.90;;;;;;5047919;28;20231;-69
2024/01/17 02:02:32;;;;;;;6.23;4.47;;;-0.70;99.90;;;;;;5048325;28;20219;-69
2024/01/17 02:05:01;;;;;;;6.80;4.57;;;-0.80;99.90;;;;;;5047124;28;20281;-70
2024/01/17 02:07:30;;;;;;;5.53;4.90;;;-0.90;99.90;;;;;;5046993;28;20626;-70
2024/01/17 02:09:57;;;;;;;7.37;5.47;;;-1.00;99.90;;;;;;5039916;28;20204;-70
2024/01/17 02:12:24;;;;;;;5.60;4.63;;;-1.10;99.90;;;;;;5047713;28;20200;-72
2024/01/17 02:14:53;;;;;;;5.93;5.17;;;-1.10;99.90;;;;;;5047342;28;20239;-72
2024/01/17 02:17:19;;;;;;;6.07;4.90;;;-1.20;99.90;;;;;;5047996;28;20292;-70
2024/01/17 02:19:46;;;;;;;7.37;5.30;;;-1.30;99.90;;;;;;5047383;28;20242;-70
2024/01/17 02:22:13;;;;;;;5.87;4.80;;;-1.20;99.90;;;;;;5047613;28;20212;-70
2024/01/17 02:24:42;;;;;;;6.13;5.27;;;-1.10;99.90;;;;;;5047842;28;21154;-70
2024/01/17 02:27:08;;;;;;;5.67;4.63;;;-1.30;99.90;;;;;;5047452;28;20305;-70
2024/01/17 02:29:35;;;;;;;7.20;5.00;;;-1.30;99.90;;;;;;5047029;28;20299;-70
2024/01/17 02:32:02;;;;;;;6.10;4.80;;;-1.30;99.90;;;;;;5047162;28;20298;-70
2024/01/17 02:34:29;;;;;;;5.40;4.90;;;-1.40;99.90;;;;;;5047737;28;20565;-70
2024/01/17 02:36:56;;;;;;;6.57;5.33;;;-1.30;99.90;;;;;;5047040;28;20654;-70
2024/01/17 02:39:24;;;;;;;5.83;4.80;;;-1.30;99.90;;;;;;5047000;28;20314;-70
2024/01/17 02:41:53;;;;;;;5.60;5.00;;;-1.30;99.90;;;;;;5047265;28;20352;-71
2024/01/17 02:44:20;;;;;;;7.30;5.37;;;-1.30;99.90;;;;;;5047484;28;20584;-71
2024/01/17 02:46:47;;;;;;;4.90;4.50;;;-1.30;99.90;;;;;;5047224;28;20196;-70
2024/01/17 02:49:19;;;;;;;5.17;4.70;;;-1.30;99.90;;;;;;5047040;28;20211;-71
2024/01/17 02:51:46;;;;;;;7.73;5.30;;;-1.30;99.90;;;;;;5047022;28;20974;-71
2024/01/17 02:54:12;;;;;;;5.77;4.97;;;-1.30;99.90;;;;;;5046872;28;20310;-72
2024/01/17 02:56:40;;;;;;;5.63;4.97;;;-1.40;99.90;;;;;;5046844;28;20303;-72
2024/01/17 02:59:08;;;;;;;10.77;5.27;;;-1.30;99.90;;;;;;5046831;28;20296;-72
2024/01/17 03:01:35;;;;;;;5.47;4.77;;;-1.40;99.90;;;;;;5047120;28;20323;-70
2024/01/17 03:04:02;;;;;;;5.10;4.57;;;-1.30;99.90;;;;;;5046495;28;20244;-71
2024/01/17 03:06:29;;;;;;;8.00;4.93;;;-1.40;99.90;;;;;;5047007;28;20265;-70
2024/01/17 03:08:55;;;;;;;6.17;4.60;;;-1.40;99.90;;;;;;5046542;28;20244;-71
2024/01/17 03:11:22;;;;;;;5.70;4.43;;;-1.40;99.90;;;;;;5046478;28;20651;-71
2024/01/17 03:13:51;;;;;;;5.13;4.67;;;-1.40;99.90;;;;;;5047024;28;20232;-71
2024/01/17 03:16:19;;;;;;;5.27;4.77;;;-1.40;99.90;;;;;;5046786;28;20207;-71
2024/01/17 03:18:46;;;;;;;5.70;5.20;;;-1.40;99.90;;;;;;5046837;28;20603;-69
2024/01/17 03:21:14;;;;;;;5.63;4.53;;;-1.40;99.90;;;;;;5046761;28;21165;-70
2024/01/17 03:23:41;;;;;;;6.83;4.83;;;-1.50;99.90;;;;;;5046610;28;20289;-70
2024/01/17 03:26:08;;;;;;;5.40;4.73;;;-1.40;99.90;;;;;;5045379;28;20321;-70
2024/01/17 03:28:35;;;;;;;5.63;5.00;;;-1.30;99.90;;;;;;5044376;28;20328;-70
2024/01/17 03:31:02;;;;;;;7.73;5.37;;;-1.30;99.90;;;;;;5044519;28;20668;-70
2024/01/17 03:33:30;;;;;;;5.70;4.83;;;-1.30;99.90;;;;;;5044531;28;20272;-69
2024/01/17 03:35:57;;;;;;;6.20;4.80;;;-1.20;99.90;;;;;;5029791;28;20646;-69
2024/01/17 03:38:25;;;;;;;6.10;4.43;;;-1.30;99.90;;;;;;5034007;28;20685;-69
2024/01/17 03:40:55;;;;;;;6.60;5.17;;;-1.30;99.90;;;;;;5044329;28;20234;-69
2024/01/17 03:43:22;;;;;;;8.57;5.00;;;-1.20;99.90;;;;;;5048496;28;20265;-69
2024/01/17 03:45:49;;;;;;;6.97;5.30;;;-1.20;99.90;;;;;;5048605;28;20272;-69
2024/01/17 03:48:19;;;;;;;7.87;4.90;;;-1.20;99.90;;;;;;5048457;28;20204;-69
2024/01/17 03:50:47;;;;;;;5.23;4.73;;;-1.20;99.90;;;;;;5048165;28;20662;-69
2024/01/17 03:53:14;;;;;;;5.63;4.50;;;-1.20;99.90;;;;;;5050440;28;20257;-69
2024/01/17 03:55:41;;;;;;;7.60;4.90;;;-1.20;99.90;;;;;;5050663;28;20263;-69
2024/01/17 03:58:08;;;;;;;6.37;4.90;;;-1.20;99.90;;;;;;5049748;28;20261;-70
2024/01/17 04:00:35;;;;;;;5.17;4.77;;;-1.20;99.90;;;;;;5049537;28;20322;-69
2024/01/17 04:03:02;;;;;;;5.90;4.73;;;-1.20;99.90;;;;;;5048555;28;20646;-69
2024/01/17 04:05:28;;;;;;;7.33;4.43;;;-1.20;99.90;;;;;;5050172;28;20291;-69
2024/01/17 04:07:57;;;;;;;5.67;4.27;;;-1.20;99.90;;;;;;5044528;28;20303;-70
2024/01/17 04:10:24;;;;;;;6.67;4.40;;;-1.20;99.90;;;;;;5030464;28;20259;-70
2024/01/17 04:12:50;;;;;;;6.40;4.50;;;-1.20;99.90;;;;;;5034854;28;20289;-69
2024/01/17 04:15:17;;;;;;;7.53;4.47;;;-1.20;99.90;;;;;;5050527;28;20398;-70
2024/01/17 04:17:44;;;;;;;4.87;4.30;;;-1.20;99.90;;;;;;5050489;28;20298;-70
2024/01/17 04:20:13;;;;;;;5.23;4.20;;;-1.20;99.90;;;;;;5050168;28;20318;-70
2024/01/17 04:22:40;;;;;;;5.30;4.77;;;-1.20;99.90;;;;;;5049976;28;20212;-69
2024/01/17 04:25:09;;;;;;;5.13;4.13;;;-1.20;99.90;;;;;;5049929;28;20210;-70
2024/01/17 04:27:36;;;;;;;5.13;4.10;;;-1.20;99.90;;;;;;5049791;28;20298;-70
2024/01/17 04:30:03;;;;;;;5.50;4.40;;;-1.20;99.90;;;;;;5049924;28;20215;-70
2024/01/17 04:32:33;;;;;;;4.87;4.47;;;-1.20;99.90;;;;;;5050208;28;20299;-70
2024/01/17 04:35:00;;;;;;;7.17;4.20;;;-1.20;99.90;;;;;;5049884;28;20231;-70
2024/01/17 04:37:27;;;;;;;4.33;3.93;;;-1.20;99.90;;;;;;5049649;28;20257;-70
2024/01/17 04:39:53;;;;;;;5.00;4.37;;;-1.20;99.90;;;;;;5049368;28;20255;-70
2024/01/17 04:42:22;;;;;;;5.03;4.33;;;-1.20;99.90;;;;;;5049767;28;20295;-70
2024/01/17 04:44:49;;;;;;;4.67;4.20;;;-1.30;99.90;;;;;;5050093;28;20254;-70
2024/01/17 04:47:16;;;;;;;4.63;4.13;;;-1.30;99.90;;;;;;5049705;28;20200;-70
2024/01/17 04:49:44;;;;;;;4.67;4.10;;;-1.30;99.90;;;;;;5049739;28;20298;-70
2024/01/17 04:52:15;;;;;;;5.53;4.10;;;-1.30;99.90;;;;;;5049298;28;20207;-70
2024/01/17 04:54:43;;;;;;;4.97;4.57;;;-1.30;99.90;;;;;;5048530;28;20214;-70
2024/01/17 04:57:10;;;;;;;5.37;4.23;;;-1.40;99.90;;;;;;5049426;28;20207;-70
2024/01/17 04:59:38;;;;;;;4.87;4.47;;;-1.40;99.90;;;;;;5049547;28;20204;-70
2024/01/17 05:02:05;;;;;;;6.33;4.10;;;-1.40;99.90;;;;;;5049347;28;20334;-70
2024/01/17 05:04:32;;;;;;;4.80;4.40;;;-1.40;99.90;;;;;;5049209;28;20244;-69
2024/01/17 05:06:59;;;;;;;5.63;4.60;;;-1.50;99.90;;;;;;5049054;28;20207;-70
2024/01/17 05:09:26;;;;;;;5.57;4.60;;;-1.50;99.90;;;;;;5048837;28;20912;-70
2024/01/17 05:11:53;;;;;;;5.07;4.53;;;-1.50;99.90;;;;;;5048546;28;20310;-69
2024/01/17 05:14:20;;;;;;;5.43;4.67;;;-1.60;99.90;;;;;;5048780;28;20218;-69
2024/01/17 05:16:48;;;;;;;6.17;4.97;;;-1.60;99.90;;;;;;5048786;28;20306;-70
2024/01/17 05:19:16;;;;;;;6.73;5.00;;;-1.60;99.90;;;;;;5049143;28;20290;-70
2024/01/17 05:21:43;;;;;;;5.83;4.90;;;-1.60;99.90;;;;;;5048358;28;20250;-69
2024/01/17 05:24:10;;;;;;;8.47;5.57;;;-1.60;99.90;;;;;;5048952;28;20302;-70
2024/01/17 05:26:37;;;;;;;6.17;4.53;;;-1.60;99.90;;;;;;5048551;28;20218;-69
2024/01/17 05:29:03;;;;;;;8.60;4.70;;;-1.60;99.90;;;;;;5048651;28;20241;-70
2024/01/17 05:31:31;;;;;;;5.13;4.63;;;-1.60;99.90;;;;;;5048942;28;20298;-70
2024/01/17 05:33:59;;;;;;;5.50;4.50;;;-1.60;99.90;;;;;;5048505;28;20302;-70
2024/01/17 05:36:26;;;;;;;7.57;5.07;;;-1.60;99.90;;;;;;5048268;28;20211;-70
2024/01/17 05:38:53;;;;;;;7.57;5.17;;;-1.70;99.90;;;;;;5048579;28;20295;-70
2024/01/17 05:41:20;;;;;;;5.53;4.63;;;-1.60;99.90;;;;;;5048569;28;20241;-70
2024/01/17 05:43:47;;;;;;;10.13;5.47;;;-1.60;99.90;;;;;;5048131;28;20296;-70
2024/01/17 05:46:14;;;;;;;7.13;5.07;;;-1.60;99.90;;;;;;5048207;28;20688;-70
2024/01/17 05:48:41;;;;;;;5.53;4.27;;;-1.60;99.90;;;;;;5048706;28;20636;-69
2024/01/17 05:51:10;;;;;;;5.33;4.83;;;-1.60;99.90;;;;;;5045620;28;20219;-69
2024/01/17 05:53:37;;;;;;;7.13;5.13;;;-1.60;99.90;;;;;;5046501;28;20709;-69
2024/01/17 05:56:04;;;;;;;6.73;5.27;;;-1.70;99.90;;;;;;5047602;28;20259;-69
2024/01/17 05:58:31;;;;;;;6.00;4.93;;;-1.70;99.90;;;;;;5047691;28;20298;-70
2024/01/17 06:00:58;;;;;;;6.27;4.80;;;-1.70;99.90;;;;;;5047782;28;20321;-69
2024/01/17 06:03:25;;;;;;;5.10;4.60;;;-1.70;99.90;;;;;;5047866;28;20341;-70
2024/01/17 06:05:52;;;;;;;7.57;4.77;;;-1.70;99.90;;;;;;5038932;28;20191;-70
2024/01/17 06:08:21;;;;;;;4.70;4.30;;;-1.70;99.90;;;;;;5035551;28;20271;-70
2024/01/17 06:10:47;;;;;;;6.50;4.60;;;-1.70;99.90;;;;;;5048086;28;20636;-70
2024/01/17 06:13:14;;;;;;;5.40;4.73;;;-1.70;99.90;;;;;;5047885;28;20253;-70
2024/01/17 06:15:41;;;;;;;5.20;4.37;;;-1.80;99.90;;;;;;5048100;28;20256;-70
2024/01/17 06:18:08;;;;;;;5.63;4.50;;;-1.70;99.90;;;;;;5047931;28;20210;-69
2024/01/17 06:20:35;;;;;;;6.70;4.47;;;-1.80;99.90;;;;;;5047532;28;20230;-70
2024/01/17 06:23:02;;;;;;;5.07;4.57;;;-1.80;99.90;;;;;;5047464;28;20214;-69
2024/01/17 06:25:30;;;;;;;6.53;4.90;;;-1.70;99.90;;;;;;5047672;28;20204;-70
2024/01/17 06:27:57;;;;;;;5.27;4.40;;;-1.80;99.90;;;;;;5047292;28;20249;-70
2024/01/17 06:30:24;;;;;;;5.47;4.70;;;-1.70;99.90;;;;;;5047437;28;20226;-69
2024/01/17 06:32:51;;;;;;;7.27;4.90;;;-1.70;99.90;;;;;;5047331;28;20309;-69
2024/01/17 06:35:18;;;;;;;5.47;4.07;;;-1.70;99.90;;;;;;5047334;28;20635;-70
2024/01/17 06:37:45;;;;;;;7.00;5.10;;;-1.70;99.90;;;;;;5047358;28;20292;-69
2024/01/17 06:40:12;;;;;;;7.50;4.50;;;-1.70;99.90;;;;;;5047343;28;20211;-69
2024/01/17 06:42:40;;;;;;;4.60;4.20;;;-1.70;99.90;;;;;;5047366;28;20237;-70
2024/01/17 06:45:07;;;;;;;6.07;4.60;;;-1.70;99.90;;;;;;5047224;28;20230;-70
2024/01/17 06:47:34;;;;;;;6.30;4.30;;;-1.70;99.90;;;;;;5046003;28;20329;-70
2024/01/17 06:50:01;;;;;;;6.13;4.43;;;-1.70;99.90;;;;;;5047315;28;20238;-70
2024/01/17 06:52:28;;;;;;;4.53;4.23;;;-1.80;99.90;;;;;;5046574;28;20733;-70
2024/01/17 06:54:55;;;;;;;4.67;4.13;;;-1.70;99.90;;;;;;5046773;28;20739;-69
2024/01/17 06:57:22;;;;;;;4.37;4.07;;;-1.80;99.90;;;;;;5047016;28;20254;-69
2024/01/17 06:59:51;;;;;;;4.43;4.03;;;-1.80;99.90;;;;;;5047300;28;20210;-69
2024/01/17 07:02:17;;;;;;;4.30;3.90;;;-1.80;99.90;;;;;;5047112;28;20263;-70
2024/01/17 07:04:44;;;;;;;5.87;4.10;;;-1.80;99.90;;;;;;5046996;28;20231;-70
2024/01/17 07:07:11;;;;;;;5.23;4.23;;;-1.80;99.90;;;;;;5046963;28;20204;-69
2024/01/17 07:09:38;;;;;;;5.63;3.47;;;-1.80;99.90;;;;;;5028518;28;20243;-69
2024/01/17 07:12:06;;;;;;;4.77;4.30;;;-1.80;99.90;;;;;;5026728;28;20796;-70
2024/01/17 07:14:33;;;;;;;5.13;3.90;;;-1.80;99.90;;;;;;5026765;28;20685;-69
2024/01/17 07:17:01;;;;;;;7.33;3.87;;;-1.80;99.90;;;;;;5026458;28;20739;-70
2024/01/17 07:19:28;;;;;;;4.47;3.93;;;-1.80;99.90;;;;;;5027101;28;20817;-69
2024/01/17 07:21:55;;;;;;;5.10;4.10;;;-1.80;99.90;;;;;;5026449;28;20249;-70
2024/01/17 07:24:22;;;;;;;9.07;4.30;;;-1.80;99.90;;;;;;5026884;28;20298;-69
2024/01/17 07:26:48;;;;;;;5.87;3.97;;;-1.80;99.90;;;;;;5026709;28;20218;-69
2024/01/17 07:29:15;;;;;;;4.47;4.07;;;-1.80;99.90;;;;;;5044518;28;20357;-69
2024/01/17 07:31:42;;;;;;;4.27;3.70;;;-1.80;99.90;;;;;;5047281;28;20296;-70
2024/01/17 07:34:11;;;;;;;6.87;4.70;;;-1.80;99.90;;;;;;5047235;28;20215;-69
2024/01/17 07:36:38;;;;;;;4.43;3.50;;;-1.80;99.90;;;;;;5046871;28;20211;-70
2024/01/17 07:39:06;;;;;;;5.33;3.67;;;-1.70;99.90;;;;;;5046830;28;20576;-69
2024/01/17 07:41:32;;;;;;;4.03;3.60;;;-1.70;99.90;;;;;;5046841;28;20232;-69
2024/01/17 07:43:59;;;;;;;3.70;3.40;;;-1.70;99.90;;;;;;5046598;28;20370;-69
2024/01/17 07:46:26;;;;;;;4.23;3.80;;;-1.70;99.90;;;;;;5047125;28;20269;-70
2024/01/17 07:48:53;;;;;;;4.53;3.40;;;-1.70;99.90;;;;;;5046746;28;20298;-69
2024/01/17 07:51:21;;;;;;;7.57;4.17;;;-1.70;99.90;;;;;;5046828;28;20286;-69
2024/01/17 07:53:48;;;;;;;4.93;3.97;;;-1.60;99.90;;;;;;5046883;28;20248;-69
2024/01/17 07:56:15;;;;;;;4.17;3.47;;;-1.70;99.90;;;;;;5046741;28;20236;-69
2024/01/17 07:58:42;;;;;;;5.47;4.10;;;-1.70;99.90;;;;;;5046783;28;20212;-69
2024/01/17 08:01:09;;;;;;;4.03;3.70;;;-1.60;99.90;;;;;;5046461;28;20273;-69
2024/01/17 08:03:39;;;;;;;5.00;3.97;;;-1.60;99.90;;;;;;5046602;28;20233;-69
2024/01/17 08:06:07;;;;;;;3.80;3.40;;;-1.60;99.90;;;;;;5046552;28;20207;-70
2024/01/17 08:08:35;;;;;;;3.93;3.63;;;-1.50;99.90;;;;;;5046529;28;20217;-69
2024/01/17 08:11:02;;;;;;;4.70;3.50;;;-1.50;99.90;;;;;;5046662;28;20203;-69
2024/01/17 08:13:29;;;;;;;6.17;4.00;;;-1.40;99.90;;;;;;5046571;28;20204;-70
2024/01/17 08:15:56;;;;;;;4.00;3.67;;;-1.40;99.90;;;;;;5046499;28;20293;-70
2024/01/17 08:18:23;;;;;;;3.50;3.20;;;-1.40;99.90;;;;;;5046853;28;20209;-69
2024/01/17 08:20:51;;;;;;;5.63;3.33;;;-1.30;99.90;;;;;;5046256;28;20243;-70
2024/01/17 08:23:18;;;;;;;3.70;3.40;;;-1.30;99.90;;;;;;5046131;28;20212;-70
2024/01/17 08:25:47;;;;;;;4.67;3.53;;;-1.20;99.90;;;;;;5046405;28;20304;-69
2024/01/17 08:28:13;;;;;;;4.70;3.37;;;-1.10;99.90;;;;;;5048627;28;20221;-70
2024/01/17 08:30:40;;;;;;;4.83;3.43;;;-1.00;99.90;;;;;;5050001;28;20306;-69
2024/01/17 08:33:07;;;;;;;3.93;3.53;;;-1.00;99.90;;;;;;5049784;28;20299;-69
2024/01/17 08:35:34;;;;;;;4.63;3.40;;;-1.00;99.90;;;;;;5050236;28;20212;-69
2024/01/17 08:38:01;;;;;;;3.77;3.43;;;-0.90;99.90;;;;;;5049800;28;20251;-69
2024/01/17 08:40:28;;;;;;;4.27;3.63;;;-0.90;99.90;;;;;;5046414;28;20219;-69
2024/01/17 08:42:56;;;;;;;4.33;3.93;;;-0.90;99.90;;;;;;5049743;28;20261;-69
2024/01/17 08:45:23;;;;;;;4.77;3.83;;;-0.80;99.90;;;;;;5049737;28;20258;-69
2024/01/17 08:47:50;;;;;;;5.77;4.17;;;-0.80;99.90;;;;;;5049577;28;20235;-69
2024/01/17 08:50:17;;;;;;;5.27;3.53;;;-0.80;99.90;;;;;;5049654;28;20295;-69
2024/01/17 08:52:44;;;;;;;3.83;3.53;;;-0.80;99.90;;;;;;5049518;28;20708;-69
2024/01/17 08:55:10;;;;;;;4.07;3.73;;;-0.70;99.90;;;;;;5049430;28;20268;-69
2024/01/17 08:57:38;;;;;;;4.37;3.30;;;-0.70;99.90;;;;;;5049356;28;20258;-69
2024/01/17 09:00:08;;;;;;;3.63;3.33;;;-0.70;99.90;;;;;;5049582;28;20219;-69
2024/01/17 09:02:35;;;;;;;4.83;3.77;;;-0.60;99.90;;;;;;5049538;28;20488;-69
2024/01/17 09:05:02;;;;;;;4.70;3.73;;;-0.60;99.90;;;;;;5049037;28;20330;-69
2024/01/17 09:07:29;;;;;;;3.30;3.00;;;-0.70;99.90;;;;;;5048903;28;20217;-69
2024/01/17 09:09:56;;;;;;;4.20;3.77;;;-0.70;99.90;;;;;;5049222;28;20299;-69
2024/01/17 09:12:23;;;;;;;4.77;3.50;;;-0.70;99.90;;;;;;5049313;28;20207;-69
2024/01/17 09:14:50;;;;;;;7.30;4.27;;;-0.60;99.90;;;;;;5049156;28;20227;-69
2024/01/17 09:17:19;;;;;;;4.43;3.37;;;-0.60;99.90;;;;;;5049540;28;20236;-69
2024/01/17 09:19:46;;;;;;;5.10;3.40;;;-0.60;99.90;;;;;;5049369;28;20571;-69
2024/01/17 09:22:13;;;;;;;3.90;3.30;;;-0.60;99.90;;;;;;5048965;28;20242;-69
2024/01/17 09:24:41;;;;;;;3.43;3.13;;;-0.50;99.90;;;;;;5049197;28;20218;-69
2024/01/17 09:27:08;;;;;;;4.67;2.83;;;-0.50;99.90;;;;;;5049212;28;20208;-69
2024/01/17 09:29:35;;;;;;;3.37;3.07;;;-0.50;99.90;;;;;;5049029;28;20910;-69
2024/01/17 09:32:02;;;;;;;3.37;3.07;;;-0.40;99.90;;;;;;5049212;28;20269;-69
2024/01/17 09:34:33;;;;;;;3.30;3.00;;;-0.30;99.90;;;;;;5049176;28;20319;-69
2024/01/17 09:37:02;;;;;;;3.57;3.27;;;-0.30;99.90;;;;;;5048233;28;20742;-69
2024/01/17 09:39:30;;;;;;;3.30;2.90;;;-0.30;99.90;;;;;;5048698;28;20303;-69
2024/01/17 09:41:59;;;;;;;4.83;3.10;;;-0.30;99.90;;;;;;5048874;28;20286;-69
2024/01/17 09:44:27;;;;;;;3.83;3.00;;;-0.30;99.90;;;;;;5049330;28;20321;-69
2024/01/17 09:46:58;;;;;;;3.37;2.93;;;-0.40;99.90;;;;;;5048761;28;20212;-69
2024/01/17 09:49:24;;;;;;;3.70;3.40;;;-0.40;99.90;;;;;;5048777;28;20299;-68
2024/01/17 09:51:53;;;;;;;4.20;3.27;;;-0.40;99.90;;;;;;5047767;28;20208;-69
2024/01/17 09:54:25;;;;;;;3.50;3.20;;;-0.40;99.90;;;;;;5048730;28;20295;-69
2024/01/17 09:56:56;;;;;;;3.93;3.03;;;-0.40;99.90;;;;;;5048228;28;20227;-69
2024/01/17 09:59:28;;;;;;;3.80;3.30;;;-0.40;99.90;;;;;;5048864;28;20270;-69
2024/01/17 10:01:55;;;;;;;3.47;3.17;;;-0.30;99.90;;;;;;5048205;28;20248;-69
2024/01/17 10:04:24;;;;;;;5.50;3.53;;;-0.30;99.90;;;;;;5048086;28;20243;-69
2024/01/17 10:06:55;;;;;;;3.63;3.00;;;-0.30;99.90;;;;;;5047932;28;20208;-69
2024/01/17 10:09:24;;;;;;;3.60;3.30;;;-0.20;99.90;;;;;;5048250;28;20234;-70
2024/01/17 10:11:51;;;;;;;3.43;3.13;;;-0.20;99.90;;;;;;5047683;28;20862;-70
2024/01/17 10:14:18;;;;;;;5.17;3.27;;;-0.20;99.90;;;;;;5048213;28;20214;-70
2024/01/17 10:16:46;;;;;;;4.07;3.57;;;-0.20;99.90;;;;;;5047997;28;20310;-69
2024/01/17 10:19:15;;;;;;;5.77;3.30;;;-0.20;99.90;;;;;;5048073;28;20677;-70
2024/01/17 10:21:43;;;;;;;3.73;3.43;;;-0.10;99.90;;;;;;5047861;28;20208;-70
2024/01/17 10:24:12;;;;;;;3.77;3.33;;;-0.10;99.90;;;;;;5047911;28;20214;-70
2024/01/17 10:26:41;;;;;;;3.57;3.27;;;-0.10;99.90;;;;;;5047612;28;20204;-69
2024/01/17 10:29:09;;;;;;;4.63;3.90;;;0.00;99.90;;;;;;5047733;28;20311;-70
2024/01/17 10:31:39;;;;;;;4.17;3.60;;;0.00;99.90;;;;;;5047766;28;20243;-70
2024/01/17 10:34:06;;;;;;;4.13;3.40;;;0.10;99.90;;;;;;5047163;28;20221;-70
2024/01/17 10:36:33;;;;;;;5.20;3.70;;;0.10;99.90;;;;;;5046771;28;20652;-69
2024/01/17 10:39:04;;;;;;;4.30;3.67;;;0.10;99.90;;;;;;5034133;28;20629;-70
2024/01/17 10:41:33;;;;;;;3.93;3.53;;;0.20;99.90;;;;;;5027667;28;20204;-69
2024/01/17 10:44:03;;;;;;;5.30;3.27;;;0.20;99.90;;;;;;5027117;28;20697;-70
2024/01/17 10:46:33;;;;;;;7.30;6.00;;;0.30;99.90;;;;;;5031225;28;20258;-70
2024/01/17 10:49:00;;;;;;;4.10;3.80;;;0.30;99.90;;;;;;5047005;28;20702;-70
2024/01/17 10:51:27;;;;;;;4.77;3.93;;;0.40;99.90;;;;;;5045844;28;20704;-70
2024/01/17 10:53:56;;;;;;;4.30;3.90;;;0.50;99.90;;;;;;5046950;28;20578;-69
2024/01/17 10:56:24;;;;;;;4.93;3.57;;;0.60;99.90;;;;;;5047274;28;20224;-69
2024/01/17 10:58:53;;;;;;;4.10;3.80;;;0.80;99.90;;;;;;5046919;28;20307;-70
2024/01/17 11:01:26;;;;;;;5.30;4.10;;;0.90;99.90;;;;;;5046949;28;20648;-70
2024/01/17 11:03:55;;;;;;;4.10;3.70;;;1.00;99.90;;;;;;5046546;28;20338;-70
2024/01/17 11:06:23;;;;;;;4.83;3.97;;;1.20;99.90;;;;;;5047062;28;20200;-70
2024/01/17 11:08:52;;;;;;;4.63;4.20;;;1.20;99.90;;;;;;5046766;28;20673;-71
2024/01/17 11:11:20;;;;;;;4.97;3.97;;;1.20;99.90;;;;;;5046768;28;20204;-70
2024/01/17 11:13:48;;;;;;;6.03;4.43;;;1.20;99.90;;;;;;5046664;28;20297;-70
2024/01/17 11:16:18;;;;;;;4.07;3.67;;;1.20;99.90;;;;;;5046841;28;20290;-70
2024/01/17 11:18:46;;;;;;;7.13;5.60;;;1.20;99.90;;;;;;5046699;28;20204;-70
2024/01/17 11:21:14;;;;;;;7.93;6.97;;;1.20;99.90;;;;;;5046491;28;20244;-70
2024/01/17 11:23:47;;;;;;;9.37;7.63;;;1.20;99.90;;;;;;5046333;28;20862;-70
2024/01/17 11:26:22;;;;;;;7.87;5.60;;;1.20;99.90;;;;;;5046792;28;20243;-70
2024/01/17 11:29:02;;;;;;;4.47;4.07;;;1.20;99.90;;;;;;5046431;28;20208;-70
2024/01/17 11:31:41;;;;;;;6.83;4.60;;;1.30;99.90;;;;;;5046794;28;20227;-70
2024/01/17 11:34:09;;;;;;;6.17;4.20;;;1.30;99.90;;;;;;5046789;28;20251;-70
2024/01/17 11:36:45;;;;;;;5.07;4.20;;;1.30;99.90;;;;;;5046737;28;20294;-70
2024/01/17 11:39:14;;;;;;;4.87;4.47;;;1.30;99.90;;;;;;5046369;28;20220;-70
2024/01/17 11:41:42;;;;;;;6.17;4.50;;;1.30;99.90;;;;;;5046611;28;20291;-70
2024/01/17 11:44:11;;;;;;;4.57;4.17;;;1.30;99.90;;;;;;5046371;28;20566;-70
2024/01/17 11:46:39;;;;;;;4.67;4.20;;;1.30;99.90;;;;;;5046176;28;20688;-70
2024/01/17 11:49:09;;;;;;;4.37;4.03;;;1.30;99.90;;;;;;5046468;28;20302;-70
2024/01/17 11:51:37;;;;;;;6.10;4.80;;;1.40;99.90;;;;;;5046095;28;20306;-70
2024/01/17 11:54:05;;;;;;;4.60;4.10;;;1.40;99.90;;;;;;5046539;28;20295;-70
2024/01/17 11:56:32;;;;;;;4.63;4.23;;;1.40;99.90;;;;;;5046618;28;20232;-70
2024/01/17 11:59:05;;;;;;;4.90;4.40;;;1.40;99.90;;;;;;5046110;28;20311;-70
2024/01/17 12:01:43;;;;;;;4.73;4.23;;;1.40;99.90;;;;;;5046312;28;20646;-70
2024/01/17 12:04:13;;;;;;;4.80;4.30;;;1.40;99.90;;;;;;5049763;28;20252;-70
2024/01/17 12:06:41;;;;;;;5.33;4.50;;;1.40;99.90;;;;;;5050032;28;20294;-70
2024/01/17 12:09:15;;;;;;;6.50;4.80;;;1.30;99.90;;;;;;5050181;28;20230;-70
2024/01/17 12:11:42;;;;;;;4.60;4.20;;;1.30;99.90;;;;;;5050361;28;20642;-70
2024/01/17 12:14:09;;;;;;;5.17;4.40;;;1.30;99.90;;;;;;5049995;28;20686;-70
2024/01/17 12:16:36;;;;;;;6.43;4.63;;;1.30;99.90;;;;;;5050105;28;20207;-70
2024/01/17 12:19:05;;;;;;;7.13;5.80;;;1.30;99.90;;;;;;5049813;28;20240;-70
2024/01/17 12:21:32;;;;;;;5.57;4.17;;;1.30;99.90;;;;;;5049640;28;20215;-70
2024/01/17 12:23:59;;;;;;;4.17;3.87;;;1.40;99.90;;;;;;5049795;28;20322;-70
2024/01/17 12:26:27;;;;;;;6.10;4.27;;;1.30;99.90;;;;;;5049854;28;20624;-70
2024/01/17 12:29:06;;;;;;;5.83;4.60;;;1.30;99.90;;;;;;5049733;28;20243;-70
2024/01/17 12:31:33;;;;;;;6.87;4.10;;;1.20;99.90;;;;;;5049759;28;20977;-70
2024/01/17 12:34:00;;;;;;;4.30;3.90;;;1.30;99.90;;;;;;5049854;28;20298;-70
2024/01/17 12:36:29;;;;;;;6.33;4.20;;;1.30;99.90;;;;;;5049649;28;20641;-70
2024/01/17 12:38:56;;;;;;;4.83;4.30;;;1.30;99.90;;;;;;5049729;28;20287;-70
2024/01/17 12:41:23;;;;;;;4.43;4.00;;;1.20;99.90;;;;;;5049728;28;20204;-70
2024/01/17 12:43:53;;;;;;;6.00;4.43;;;1.20;99.90;;;;;;5049863;28;20326;-70
2024/01/17 12:46:20;;;;;;;6.27;4.57;;;1.10;99.90;;;;;;5050390;28;20227;-70
2024/01/17 12:48:56;;;;;;;4.97;4.47;;;1.10;99.90;;;;;;5049663;28;20204;-70
2024/01/17 12:51:23;;;;;;;4.90;4.40;;;1.10;99.90;;;;;;5049815;28;20196;-70